Time;durP1;ratioP1;P1;durP2;ratioP2;P2;SDS_P1;SDS_P2;PMS_P1;PMS_P2;Temp;Humidity;BMP_temperature;BMP_pressure;BME280_temperature;BME280_humidity;BME280_pressure;Samples;Min_cycle;Max_cycle;Signal;HPM_P1;HPM_P2
2023/03/07 00:02:22;;;;;;;;;;;22.60;78.30;;;;;;1909939;73;20500;-89
2023/03/07 00:04:52;;;;;;;;;;;22.60;78.40;;;;;;1904525;73;20182;-88
2023/03/07 00:07:22;;;;;;;;;;;22.60;78.30;;;;;;1894315;74;20170;-90
2023/03/07 00:09:52;;;;;;;;;;;22.60;78.20;;;;;;1934738;73;20167;-90
2023/03/07 00:12:22;;;;;;;;;;;22.70;78.20;;;;;;1943818;73;20128;-90
2023/03/07 00:14:52;;;;;;;;;;;22.60;78.50;;;;;;1903845;73;20192;-89
2023/03/07 00:17:22;;;;;;;;;;;22.60;79.30;;;;;;1921129;73;20256;-90
2023/03/07 00:19:52;;;;;;;;;;;22.60;78.40;;;;;;1912723;73;20175;-90
2023/03/07 00:22:22;;;;;;;;;;;22.70;78.30;;;;;;1892033;73;20291;-90
2023/03/07 00:24:52;;;;;;;;;;;22.70;78.30;;;;;;1899009;73;20210;-90
2023/03/07 00:27:22;;;;;;;;;;;22.70;78.30;;;;;;1899334;73;20203;-89
2023/03/07 00:29:52;;;;;;;;;;;22.70;78.30;;;;;;1903680;75;20127;-88
2023/03/07 00:32:25;;;;;;;;;;;22.70;78.10;;;;;;1901621;73;20154;-89
2023/03/07 00:35:13;;;;;;;;;;;22.70;78.10;;;;;;1904692;74;20316;-91
2023/03/07 00:37:45;;;;;;;;;;;22.80;77.80;;;;;;1897890;73;20320;-90
2023/03/07 00:40:31;;;;;;;;;;;22.80;77.70;;;;;;1905664;73;20122;-90
2023/03/07 00:46:27;;;;;;;;;;;22.90;76.70;;;;;;1828151;77;20601;-71
2023/03/07 00:52:08;;;;;;;;;;;23.00;76.90;;;;;;1898521;73;20181;-72
2023/03/07 00:54:38;;;;;;;;;;;23.00;76.70;;;;;;1899338;73;20233;-72
2023/03/07 01:03:05;;;;;;;;;;;23.10;75.70;;;;;;1896644;74;20219;-75
2023/03/07 01:05:36;;;;;;;;;;;23.20;75.80;;;;;;1901710;73;20180;-73
2023/03/07 01:08:09;;;;;;;;;;;23.10;75.70;;;;;;1904422;73;20237;-76
2023/03/07 01:10:55;;;;;;;;;;;23.20;75.50;;;;;;1891738;74;20323;-74
2023/03/07 01:13:19;;;;;;;;;;;23.30;75.90;;;;;;1895616;73;20178;-73
2023/03/07 01:15:49;;;;;;;;;;;23.30;76.00;;;;;;1885539;74;20221;-73
2023/03/07 01:18:21;;;;;;;;;;;23.30;75.80;;;;;;1895135;74;20161;-73
2023/03/07 01:20:52;;;;;;;;;;;23.30;76.20;;;;;;1879509;73;20196;-75
2023/03/07 01:23:27;;;;;;;;;;;23.30;76.00;;;;;;1897527;73;20284;-75
2023/03/07 01:25:58;;;;;;;;;;;23.30;76.20;;;;;;1877812;73;20237;-74
2023/03/07 01:28:29;;;;;;;;;;;23.30;75.90;;;;;;1886085;73;20257;-75
2023/03/07 01:30:59;;;;;;;;;;;23.40;75.50;;;;;;1884926;74;20201;-74
2023/03/07 01:33:32;;;;;;;;;;;23.40;75.00;;;;;;1890596;74;20185;-76
2023/03/07 01:36:02;;;;;;;;;;;23.50;74.70;;;;;;1884415;74;20511;-75
2023/03/07 01:38:33;;;;;;;;;;;23.50;74.60;;;;;;1857349;75;20185;-74
2023/03/07 01:41:04;;;;;;;;;;;23.50;74.00;;;;;;1874152;75;20233;-73
2023/03/07 01:43:34;;;;;;;;;;;23.60;73.80;;;;;;1823996;76;20306;-76
2023/03/07 01:46:20;;;;;;;;;;;23.60;73.00;;;;;;1865122;75;20304;-74
2023/03/07 01:48:58;;;;;;;;;;;23.70;72.90;;;;;;1844836;76;20187;-73
2023/03/07 01:51:35;;;;;;;;;;;23.70;72.80;;;;;;1851677;75;20229;-73
2023/03/07 01:54:05;;;;;;;;;;;23.70;72.40;;;;;;1869099;75;20168;-74
2023/03/07 01:56:36;;;;;;;;;;;23.80;72.50;;;;;;1864970;75;20208;-75
2023/03/07 01:59:07;;;;;;;;;;;23.90;72.60;;;;;;1857188;76;20508;-76
2023/03/07 02:01:56;;;;;;;;;;;23.90;72.30;;;;;;1842101;76;20157;-76
2023/03/07 02:04:56;;;;;;;;;;;24.00;72.00;;;;;;1801092;77;20299;-77
2023/03/07 02:07:28;;;;;;;;;;;24.00;71.70;;;;;;1858504;75;20442;-76
2023/03/07 02:10:02;;;;;;;;;;;24.10;71.70;;;;;;1876447;74;20262;-75
2023/03/07 02:12:32;;;;;;;;;;;24.10;72.00;;;;;;1857284;76;20482;-77
2023/03/07 02:15:03;;;;;;;;;;;24.10;72.10;;;;;;1850181;74;20236;-76
2023/03/07 02:17:35;;;;;;;;;;;24.20;72.00;;;;;;1870971;75;20484;-75
2023/03/07 02:20:08;;;;;;;;;;;24.30;71.60;;;;;;1870993;74;20189;-76
2023/03/07 02:22:39;;;;;;;;;;;24.40;71.70;;;;;;1872533;75;20166;-76
2023/03/07 02:25:16;;;;;;;;;;;24.40;71.30;;;;;;1855335;75;20292;-76
2023/03/07 02:27:47;;;;;;;;;;;24.50;70.90;;;;;;1839014;76;20205;-77
2023/03/07 02:30:17;;;;;;;;;;;24.60;70.60;;;;;;1830068;76;20287;-76
2023/03/07 02:32:47;;;;;;;;;;;24.70;70.80;;;;;;1850507;76;20582;-76
2023/03/07 02:35:18;;;;;;;;;;;24.80;70.00;;;;;;1838599;76;20241;-76
2023/03/07 02:37:50;;;;;;;;;;;24.80;70.20;;;;;;1849485;76;20201;-76
2023/03/07 02:40:21;;;;;;;;;;;24.80;69.30;;;;;;1867732;75;20613;-76
2023/03/07 02:42:52;;;;;;;;;;;25.00;69.30;;;;;;1876093;75;20200;-78
2023/03/07 02:48:12;;;;;;;;;;;25.10;68.70;;;;;;1855633;75;20205;-75
2023/03/07 02:50:43;;;;;;;;;;;25.10;68.60;;;;;;1870413;75;20311;-77
2023/03/07 02:53:13;;;;;;;;;;;25.20;68.40;;;;;;1866907;74;20183;-77
2023/03/07 02:55:46;;;;;;;;;;;25.30;68.80;;;;;;1831602;76;20291;-76
2023/03/07 02:58:24;;;;;;;;;;;25.40;68.70;;;;;;1819514;76;20174;-76
2023/03/07 03:01:02;;;;;;;;;;;25.40;68.40;;;;;;1836079;76;20186;-77
2023/03/07 03:03:32;;;;;;;;;;;25.50;68.00;;;;;;1866747;75;20266;-79
2023/03/07 03:06:26;;;;;;;;;;;25.60;68.50;;;;;;1849131;74;20200;-74
2023/03/07 03:08:58;;;;;;;;;;;25.70;68.60;;;;;;1859292;75;20281;-75
2023/03/07 03:11:28;;;;;;;;;;;25.80;68.00;;;;;;1865931;75;20192;-76
2023/03/07 03:13:59;;;;;;;;;;;25.90;67.40;;;;;;1872371;75;20193;-76
2023/03/07 03:16:29;;;;;;;;;;;26.00;67.40;;;;;;1870171;74;20647;-77
2023/03/07 03:19:00;;;;;;;;;;;26.10;67.40;;;;;;1900997;73;20189;-77
2023/03/07 03:21:30;;;;;;;;;;;26.20;66.50;;;;;;1893321;73;20747;-77
2023/03/07 03:24:01;;;;;;;;;;;26.40;66.40;;;;;;1895310;74;20409;-77
2023/03/07 03:26:31;;;;;;;;;;;26.40;65.90;;;;;;1907983;73;20173;-76
2023/03/07 03:29:01;;;;;;;;;;;26.60;66.00;;;;;;1894590;73;20174;-75
2023/03/07 03:31:31;;;;;;;;;;;26.70;64.80;;;;;;1867407;75;20170;-77
2023/03/07 03:34:01;;;;;;;;;;;26.70;65.10;;;;;;1830188;77;20544;-76
2023/03/07 03:36:32;;;;;;;;;;;26.90;65.60;;;;;;1809972;76;20221;-76
2023/03/07 03:39:09;;;;;;;;;;;27.00;65.40;;;;;;1869783;76;20574;-76
2023/03/07 03:41:42;;;;;;;;;;;27.10;64.70;;;;;;1852031;75;20212;-77
2023/03/07 03:44:12;;;;;;;;;;;27.30;63.50;;;;;;1842417;76;20417;-76
2023/03/07 03:46:54;;;;;;;;;;;27.40;65.30;;;;;;1846135;75;20380;-78
2023/03/07 03:49:30;;;;;;;;;;;27.40;64.70;;;;;;1867537;75;20217;-78
2023/03/07 03:52:06;;;;;;;;;;;27.50;64.60;;;;;;1865569;75;20253;-76
2023/03/07 03:54:43;;;;;;;;;;;27.60;62.70;;;;;;1862845;75;20209;-76
2023/03/07 03:57:21;;;;;;;;;;;27.70;64.20;;;;;;1818902;76;20126;-77
2023/03/07 03:59:56;;;;;;;;;;;27.90;62.00;;;;;;1873821;75;20170;-74
2023/03/07 04:02:42;;;;;;;;;;;27.90;61.80;;;;;;1853973;75;20245;-76
2023/03/07 04:05:28;;;;;;;;;;;28.00;61.80;;;;;;1848440;76;20119;-77
2023/03/07 04:08:26;;;;;;;;;;;28.10;63.40;;;;;;1878519;74;22038;-76
2023/03/07 04:17:31;;;;;;;;;;;28.40;60.20;;;;;;1753851;80;20278;-75
2023/03/07 04:20:16;;;;;;;;;;;28.50;59.80;;;;;;1789981;78;20722;-76
2023/03/07 04:22:46;;;;;;;;;;;28.60;61.60;;;;;;1770760;78;20791;-75
2023/03/07 04:25:17;;;;;;;;;;;28.60;59.60;;;;;;1763410;80;20904;-75
2023/03/07 04:27:48;;;;;;;;;;;28.70;62.20;;;;;;1737989;80;20180;-74
2023/03/07 04:30:19;;;;;;;;;;;28.80;61.30;;;;;;1804347;77;20334;-75
2023/03/07 04:33:14;;;;;;;;;;;28.90;60.50;;;;;;1811645;77;20190;-75
2023/03/07 04:35:38;;;;;;;;;;;29.00;60.80;;;;;;1816730;77;20479;-76
2023/03/07 04:38:11;;;;;;;;;;;29.10;59.30;;;;;;1804299;77;20774;-76
2023/03/07 04:40:42;;;;;;;;;;;29.20;59.90;;;;;;1808511;77;20210;-76
2023/03/07 04:43:12;;;;;;;;;;;29.30;59.00;;;;;;1802450;78;20267;-76
2023/03/07 04:45:50;;;;;;;;;;;29.30;58.80;;;;;;1802148;79;20872;-73
2023/03/07 04:51:38;;;;;;;;;;;29.50;59.60;;;;;;1876366;73;20208;-77
2023/03/07 04:54:17;;;;;;;;;;;29.60;59.00;;;;;;1825115;75;20184;-75
2023/03/07 04:56:52;;;;;;;;;;;29.70;59.40;;;;;;1863786;75;20177;-75
2023/03/07 05:02:07;;;;;;;;;;;29.70;57.70;;;;;;1825997;76;20598;-75
2023/03/07 05:04:38;;;;;;;;;;;29.60;57.80;;;;;;1933499;73;20225;-76
2023/03/07 05:07:09;;;;;;;;;;;29.70;58.80;;;;;;1887846;73;20759;-76
2023/03/07 05:09:39;;;;;;;;;;;29.80;57.00;;;;;;1894975;73;20252;-75
2023/03/07 05:12:09;;;;;;;;;;;29.70;56.50;;;;;;1907554;73;20205;-75
2023/03/07 05:14:39;;;;;;;;;;;29.80;57.10;;;;;;1920047;73;20217;-77
2023/03/07 05:17:10;;;;;;;;;;;29.80;58.30;;;;;;1887265;74;20174;-75
2023/03/07 05:19:43;;;;;;;;;;;29.90;57.80;;;;;;1877091;75;20156;-75
2023/03/07 05:22:14;;;;;;;;;;;29.90;57.90;;;;;;1910485;73;20208;-75
2023/03/07 05:24:44;;;;;;;;;;;30.00;56.70;;;;;;1907542;73;20181;-74
2023/03/07 05:27:15;;;;;;;;;;;30.00;55.40;;;;;;1900230;73;20199;-76
2023/03/07 05:29:45;;;;;;;;;;;30.10;55.30;;;;;;1888876;75;20212;-75
2023/03/07 05:32:15;;;;;;;;;;;30.20;54.70;;;;;;1879532;74;20514;-74
2023/03/07 05:34:50;;;;;;;;;;;30.20;54.70;;;;;;1850254;75;20178;-77
2023/03/07 05:37:23;;;;;;;;;;;30.30;56.80;;;;;;1866297;75;20149;-77
2023/03/07 05:40:14;;;;;;;;;;;30.30;56.60;;;;;;1857751;75;20231;-77
2023/03/07 05:42:47;;;;;;;;;;;30.40;55.50;;;;;;1859361;76;20173;-76
2023/03/07 05:45:31;;;;;;;;;;;30.50;56.00;;;;;;1877007;75;20247;-75
2023/03/07 05:48:21;;;;;;;;;;;30.60;54.80;;;;;;1860552;76;20620;-75
2023/03/07 05:50:54;;;;;;;;;;;30.60;54.30;;;;;;1863140;76;20258;-75
2023/03/07 05:53:36;;;;;;;;;;;30.60;55.60;;;;;;1829354;76;20226;-75
2023/03/07 05:56:09;;;;;;;;;;;30.60;54.50;;;;;;1820075;77;20171;-75
2023/03/07 05:58:53;;;;;;;;;;;30.50;54.90;;;;;;1865615;75;20374;-76
2023/03/07 06:01:32;;;;;;;;;;;30.60;55.00;;;;;;1877515;73;20146;-75
2023/03/07 06:04:35;;;;;;;;;;;;;;;;;;;;;
2023/03/07 06:07:20;;;;;;;;;;;30.60;55.00;;;;;;1886388;74;20191;-77
2023/03/07 06:09:50;;;;;;;;;;;30.60;55.80;;;;;;1890271;74;20574;-76
2023/03/07 06:12:20;;;;;;;;;;;30.60;54.90;;;;;;1875628;75;20248;-77
2023/03/07 06:14:50;;;;;;;;;;;30.60;54.50;;;;;;1868870;75;20331;-76
2023/03/07 06:17:21;;;;;;;;;;;30.60;54.00;;;;;;1861362;76;20167;-74
2023/03/07 06:19:51;;;;;;;;;;;30.60;54.30;;;;;;1879719;75;20196;-76
2023/03/07 06:22:21;;;;;;;;;;;30.70;55.20;;;;;;1839856;76;20180;-87
2023/03/07 06:24:53;;;;;;;;;;;30.70;56.10;;;;;;1866808;75;20285;-88
2023/03/07 06:27:41;;;;;;;;;;;30.80;53.70;;;;;;1921537;73;20227;-88
2023/03/07 06:30:15;;;;;;;;;;;30.90;54.90;;;;;;1907219;73;20432;-88
2023/03/07 06:32:48;;;;;;;;;;;31.00;56.20;;;;;;1871195;75;20172;-90
2023/03/07 06:35:19;;;;;;;;;;;31.00;55.90;;;;;;1891023;73;20288;-89
2023/03/07 06:37:52;;;;;;;;;;;31.00;55.40;;;;;;1913629;75;20173;-88
2023/03/07 06:40:29;;;;;;;;;;;31.00;55.30;;;;;;1900745;75;20174;-88
2023/03/07 06:42:59;;;;;;;;;;;31.00;53.50;;;;;;1894990;73;20182;-85
2023/03/07 06:45:35;;;;;;;;;;;31.00;55.20;;;;;;1863131;74;20199;-88
2023/03/07 06:48:06;;;;;;;;;;;31.00;54.50;;;;;;1904994;74;20157;-88
2023/03/07 06:50:45;;;;;;;;;;;31.00;54.50;;;;;;1859164;74;20187;-91
2023/03/07 06:53:15;;;;;;;;;;;31.00;52.90;;;;;;1839726;75;20208;-83
2023/03/07 06:55:49;;;;;;;;;;;31.10;54.70;;;;;;1831379;76;20174;-87
2023/03/07 06:58:19;;;;;;;;;;;31.10;54.80;;;;;;1862551;76;20132;-88
2023/03/07 07:00:55;;;;;;;;;;;31.20;53.30;;;;;;1832617;76;20555;-87
2023/03/07 07:03:39;;;;;;;;;;;31.20;53.70;;;;;;1899215;73;20229;-88
2023/03/07 07:06:09;;;;;;;;;;;31.20;53.00;;;;;;1899461;73;20562;-86
2023/03/07 07:11:50;;;;;;;;;;;31.20;52.20;;;;;;1911681;73;20224;-86
2023/03/07 07:14:20;;;;;;;;;;;31.10;54.20;;;;;;1944099;73;20239;-86
2023/03/07 07:16:50;;;;;;;;;;;31.10;54.30;;;;;;1903033;75;20304;-88
2023/03/07 07:19:20;;;;;;;;;;;31.20;52.80;;;;;;1893253;73;20183;-87
2023/03/07 07:21:52;;;;;;;;;;;31.20;53.70;;;;;;1897208;74;20162;-87
2023/03/07 07:27:23;;;;;;;;;;;31.10;53.20;;;;;;1897854;74;20200;-88
2023/03/07 07:29:55;;;;;;;;;;;31.10;53.50;;;;;;1897938;74;20221;-88
2023/03/07 07:35:16;;;;;;;;;;;31.10;53.30;;;;;;1804525;78;20181;-85
2023/03/07 07:37:48;;;;;;;;;;;31.20;54.50;;;;;;1902371;74;20188;-88
2023/03/07 07:40:18;;;;;;;;;;;31.20;52.50;;;;;;1884113;74;20259;-88
2023/03/07 07:43:08;;;;;;;;;;;31.20;54.30;;;;;;1907868;73;20198;-89
2023/03/07 07:46:00;;;;;;;;;;;31.20;54.40;;;;;;1892931;73;20170;-89
2023/03/07 07:48:32;;;;;;;;;;;31.20;52.00;;;;;;1882709;74;20174;-89
2023/03/07 07:51:06;;;;;;;;;;;31.20;52.10;;;;;;1878412;75;20135;-88
2023/03/07 07:53:34;;;;;;;;;;;31.20;52.40;;;;;;1862927;76;20199;-88
2023/03/07 07:56:06;;;;;;;;;;;31.10;50.70;;;;;;1838935;76;20204;-88
2023/03/07 07:58:36;;;;;;;;;;;31.00;53.00;;;;;;1918184;74;20224;-87
2023/03/07 08:01:18;;;;;;;;;;;31.00;51.30;;;;;;1904478;74;20253;-87
2023/03/07 08:03:55;;;;;;;;;;;31.00;51.60;;;;;;1894981;74;20210;-87
2023/03/07 08:06:26;;;;;;;;;;;31.00;52.50;;;;;;1906412;73;20272;-85
2023/03/07 08:09:04;;;;;;;;;;;31.00;53.20;;;;;;1914140;74;20189;-87
2023/03/07 08:11:53;;;;;;;;;;;31.10;53.00;;;;;;1898559;74;20206;-87
2023/03/07 08:14:42;;;;;;;;;;;31.00;54.00;;;;;;1910811;73;20254;-90
2023/03/07 08:17:14;;;;;;;;;;;31.00;53.40;;;;;;1903187;74;20213;-86
2023/03/07 08:19:49;;;;;;;;;;;31.00;52.00;;;;;;1873309;75;20221;-86
2023/03/07 08:22:20;;;;;;;;;;;31.00;52.10;;;;;;1913499;73;20200;-87
2023/03/07 08:24:50;;;;;;;;;;;31.00;51.20;;;;;;1880119;75;20295;-89
2023/03/07 08:27:20;;;;;;;;;;;30.90;52.10;;;;;;1919245;74;20575;-87
2023/03/07 08:29:50;;;;;;;;;;;30.90;51.90;;;;;;1913846;74;20175;-88
2023/03/07 08:32:20;;;;;;;;;;;30.90;52.90;;;;;;1910696;74;20329;-88
2023/03/07 08:34:50;;;;;;;;;;;30.90;53.10;;;;;;1897486;74;20177;-89
2023/03/07 08:37:20;;;;;;;;;;;30.90;52.30;;;;;;1916596;74;20231;-85
2023/03/07 08:39:50;;;;;;;;;;;30.90;51.90;;;;;;1904554;74;20280;-86
2023/03/07 08:42:19;;;;;;;;;;;30.90;51.90;;;;;;1909017;74;20197;-86
2023/03/07 08:44:50;;;;;;;;;;;30.90;51.00;;;;;;1907522;74;20201;-86
2023/03/07 08:47:19;;;;;;;;;;;30.90;51.50;;;;;;1878836;75;20171;-85
2023/03/07 08:49:49;;;;;;;;;;;30.90;52.10;;;;;;1906487;74;20228;-87
2023/03/07 08:52:19;;;;;;;;;;;31.00;50.80;;;;;;1916979;75;20417;-88
2023/03/07 08:54:49;;;;;;;;;;;31.00;51.00;;;;;;1907954;74;20232;-87
2023/03/07 08:57:21;;;;;;;;;;;31.00;51.20;;;;;;1825461;77;20177;-85
2023/03/07 08:59:51;;;;;;;;;;;31.00;51.10;;;;;;1833651;76;20176;-85
2023/03/07 09:02:21;;;;;;;;;;;31.00;51.60;;;;;;1834240;76;20216;-85
2023/03/07 09:04:52;;;;;;;;;;;30.90;51.80;;;;;;1789553;77;20211;-86
2023/03/07 09:07:40;;;;;;;;;;;30.90;51.30;;;;;;1764578;79;20541;-76
2023/03/07 09:10:10;;;;;;;;;;;30.90;52.20;;;;;;1802842;77;20269;-76
2023/03/07 09:12:40;;;;;;;;;;;30.90;50.00;;;;;;1767861;79;20260;-77
2023/03/07 09:15:10;;;;;;;;;;;30.90;49.70;;;;;;1799984;77;20172;-75
2023/03/07 09:17:41;;;;;;;;;;;30.90;48.60;;;;;;1799744;78;20382;-77
2023/03/07 09:20:11;;;;;;;;;;;30.90;49.40;;;;;;1840166;76;20315;-78
2023/03/07 09:22:42;;;;;;;;;;;30.90;50.70;;;;;;1836510;76;20242;-74
2023/03/07 09:25:12;;;;;;;;;;;30.80;50.30;;;;;;1845665;76;20205;-74
2023/03/07 09:27:44;;;;;;;;;;;30.80;51.40;;;;;;1834440;76;20260;-76
2023/03/07 09:30:14;;;;;;;;;;;30.80;51.70;;;;;;1832274;76;20169;-76
2023/03/07 09:32:44;;;;;;;;;;;30.70;52.30;;;;;;1824944;77;20274;-78
2023/03/07 09:35:14;;;;;;;;;;;30.70;50.80;;;;;;1796844;77;20253;-77
2023/03/07 09:37:50;;;;;;;;;;;30.70;51.20;;;;;;1797077;78;20194;-76
2023/03/07 09:40:26;;;;;;;;;;;30.70;52.40;;;;;;1851796;76;20245;-75
2023/03/07 09:42:56;;;;;;;;;;;30.60;53.20;;;;;;1846732;76;20256;-77
2023/03/07 09:45:28;;;;;;;;;;;30.60;52.60;;;;;;1879593;75;20187;-76
2023/03/07 09:48:02;;;;;;;;;;;30.60;51.70;;;;;;1878014;75;20162;-77
2023/03/07 09:50:42;;;;;;;;;;;30.50;51.20;;;;;;1871912;75;20241;-76
2023/03/07 09:53:16;;;;;;;;;;;30.50;50.70;;;;;;1811007;78;20473;-78
2023/03/07 09:55:50;;;;;;;;;;;30.50;53.20;;;;;;1811877;77;20172;-76
2023/03/07 09:58:22;;;;;;;;;;;30.50;51.70;;;;;;1816915;78;20182;-76
2023/03/07 10:00:53;;;;;;;;;;;30.50;52.30;;;;;;1811019;78;20163;-78
2023/03/07 10:03:25;;;;;;;;;;;30.40;52.60;;;;;;1802608;78;20249;-75
2023/03/07 10:05:56;;;;;;;;;;;30.40;53.00;;;;;;1813910;77;20231;-74
2023/03/07 10:08:27;;;;;;;;;;;30.40;52.60;;;;;;1806728;78;20470;-77
2023/03/07 10:11:01;;;;;;;;;;;30.40;53.50;;;;;;1839393;76;20128;-77
2023/03/07 10:13:49;;;;;;;;;;;30.40;53.60;;;;;;1832564;76;20214;-77
2023/03/07 10:16:23;;;;;;;;;;;30.40;54.60;;;;;;1782228;78;20177;-75
2023/03/07 10:19:06;;;;;;;;;;;30.30;53.70;;;;;;1802231;78;20550;-85
2023/03/07 10:21:37;;;;;;;;;;;30.30;54.00;;;;;;1802815;78;20233;-87
2023/03/07 10:24:25;;;;;;;;;;;30.20;53.90;;;;;;1810921;78;20238;-84
2023/03/07 10:26:59;;;;;;;;;;;30.20;54.50;;;;;;1808855;78;20239;-83
2023/03/07 10:29:40;;;;;;;;;;;30.20;53.50;;;;;;1810834;78;20297;-87
2023/03/07 10:32:27;;;;;;;;;;;30.10;53.40;;;;;;1810799;78;20505;-85
2023/03/07 10:35:01;;;;;;;;;;;30.10;53.60;;;;;;1813613;78;20609;-87
2023/03/07 10:37:35;;;;;;;;;;;30.10;53.30;;;;;;1799974;78;20200;-89
2023/03/07 10:40:06;;;;;;;;;;;30.10;52.60;;;;;;1794308;78;20171;-89
2023/03/07 10:42:38;;;;;;;;;;;30.00;53.10;;;;;;1801786;78;20169;-91
2023/03/07 10:45:09;;;;;;;;;;;30.00;52.70;;;;;;1812476;79;20194;-90
2023/03/07 10:47:42;;;;;;;;;;;29.90;52.50;;;;;;1813754;78;20158;-89
2023/03/07 10:50:17;;;;;;;;;;;30.00;52.70;;;;;;1807051;79;20243;-89
2023/03/07 10:52:48;;;;;;;;;;;30.00;52.00;;;;;;1813097;79;20208;-89
2023/03/07 10:55:31;;;;;;;;;;;29.90;53.00;;;;;;1787475;79;20265;-92
2023/03/07 10:58:09;;;;;;;;;;;29.90;53.30;;;;;;1801624;79;20218;-91
2023/03/07 11:00:39;;;;;;;;;;;29.80;53.40;;;;;;1772189;79;20212;-90
2023/03/07 11:03:22;;;;;;;;;;;29.80;53.50;;;;;;1809031;78;20214;-90
2023/03/07 11:05:52;;;;;;;;;;;29.80;53.20;;;;;;1783950;79;20202;-90
2023/03/07 11:14:08;;;;;;;;;;;29.70;53.30;;;;;;1846157;76;20266;-87
2023/03/07 11:19:31;;;;;;;;;;;29.70;53.40;;;;;;1831760;76;20139;-88
2023/03/07 11:22:02;;;;;;;;;;;29.60;53.90;;;;;;1866497;76;20180;-90
2023/03/07 11:30:45;;;;;;;;;;;29.50;54.80;;;;;;1778766;79;20251;-89
2023/03/07 11:33:44;;;;;;;;;;;29.50;55.00;;;;;;1763960;78;20223;-90
2023/03/07 11:36:24;;;;;;;;;;;29.40;54.30;;;;;;1765307;79;20209;-90
2023/03/07 11:39:02;;;;;;;;;;;29.40;55.30;;;;;;1781378;79;20252;-90
2023/03/07 11:42:05;;;;;;;;;;;29.40;55.00;;;;;;1780626;78;20178;-89
2023/03/07 11:45:01;;;;;;;;;;;29.30;55.00;;;;;;1711763;82;20322;-89
2023/03/07 11:47:52;;;;;;;;;;;29.30;55.60;;;;;;1787717;78;20597;-90
2023/03/07 11:53:31;;;;;;;;;;;29.30;55.20;;;;;;1768596;76;20128;-88
2023/03/07 11:56:02;;;;;;;;;;;29.20;55.20;;;;;;1843672;77;20175;-88
2023/03/07 11:59:02;;;;;;;;;;;29.20;55.40;;;;;;1896681;75;20154;-89
2023/03/07 12:02:01;;;;;;;;;;;;;;;;;;;;;
2023/03/07 12:08:01;;;;;;;;;;;29.10;55.50;;;;;;1830375;77;20218;-87
2023/03/07 12:10:39;;;;;;;;;;;29.10;55.50;;;;;;1777735;79;20195;-88
2023/03/07 12:13:31;;;;;;;;;;;29.10;55.50;;;;;;1760800;78;20229;-89
2023/03/07 12:16:11;;;;;;;;;;;29.10;55.10;;;;;;1833583;76;20170;-88
2023/03/07 12:18:44;;;;;;;;;;;29.00;55.50;;;;;;1845534;76;20190;-89
2023/03/07 12:21:18;;;;;;;;;;;29.00;55.30;;;;;;1867171;75;20315;-88
2023/03/07 12:24:09;;;;;;;;;;;29.00;55.50;;;;;;1872962;75;20243;-87
2023/03/07 12:26:42;;;;;;;;;;;29.00;55.90;;;;;;1725429;82;20179;-88
2023/03/07 12:29:22;;;;;;;;;;;29.00;56.00;;;;;;1730702;80;20250;-88
2023/03/07 12:31:53;;;;;;;;;;;28.90;56.40;;;;;;1831700;77;20256;-88
2023/03/07 12:34:27;;;;;;;;;;;28.90;56.50;;;;;;1823836;76;20259;-90
2023/03/07 12:36:58;;;;;;;;;;;28.90;56.60;;;;;;1876833;75;20202;-88
2023/03/07 12:39:29;;;;;;;;;;;28.80;56.80;;;;;;1864058;75;20300;-86
2023/03/07 12:42:03;;;;;;;;;;;28.80;56.80;;;;;;1879338;76;20191;-88
2023/03/07 12:44:34;;;;;;;;;;;28.80;56.80;;;;;;1882088;76;20220;-87
2023/03/07 12:47:22;;;;;;;;;;;28.80;56.90;;;;;;1867485;76;20238;-87
2023/03/07 12:49:53;;;;;;;;;;;28.70;57.00;;;;;;1823669;77;20234;-88
2023/03/07 12:52:27;;;;;;;;;;;28.70;57.30;;;;;;1824030;77;20240;-89
2023/03/07 12:54:58;;;;;;;;;;;28.60;57.40;;;;;;1836984;77;20182;-88
2023/03/07 12:57:29;;;;;;;;;;;28.60;57.70;;;;;;1832711;78;20509;-88
2023/03/07 13:00:00;;;;;;;;;;;28.60;57.90;;;;;;1830391;78;20178;-88
2023/03/07 13:02:31;;;;;;;;;;;28.60;58.20;;;;;;1832759;78;20229;-88
2023/03/07 13:05:01;;;;;;;;;;;28.60;58.20;;;;;;1824706;77;20240;-89
2023/03/07 13:07:32;;;;;;;;;;;28.50;58.90;;;;;;1834349;77;20234;-87
2023/03/07 13:10:03;;;;;;;;;;;28.50;59.00;;;;;;1826748;78;20182;-88
2023/03/07 13:12:37;;;;;;;;;;;28.50;59.10;;;;;;1836732;77;20178;-89
2023/03/07 13:15:20;;;;;;;;;;;28.40;59.10;;;;;;1790671;79;20229;-88
2023/03/07 13:17:52;;;;;;;;;;;28.40;59.20;;;;;;1781302;79;20212;-87
2023/03/07 13:20:30;;;;;;;;;;;28.40;59.00;;;;;;1778300;79;20250;-89
2023/03/07 13:23:01;;;;;;;;;;;28.40;59.30;;;;;;1776711;79;20192;-89
2023/03/07 13:25:36;;;;;;;;;;;28.40;59.30;;;;;;1781656;79;20217;-89
2023/03/07 13:28:07;;;;;;;;;;;28.40;59.40;;;;;;1785126;80;20175;-88
2023/03/07 13:30:37;;;;;;;;;;;28.40;59.30;;;;;;1783766;79;20219;-88
2023/03/07 13:33:26;;;;;;;;;;;28.40;59.60;;;;;;1782748;79;20323;-89
2023/03/07 13:35:57;;;;;;;;;;;28.40;59.50;;;;;;1782275;80;20178;-89
2023/03/07 13:38:31;;;;;;;;;;;28.40;59.10;;;;;;1782794;79;20478;-89
2023/03/07 13:41:02;;;;;;;;;;;28.30;59.50;;;;;;1777966;78;20478;-89
2023/03/07 13:43:34;;;;;;;;;;;28.30;59.50;;;;;;1778594;79;20193;-89
2023/03/07 13:46:04;;;;;;;;;;;28.30;59.50;;;;;;1775169;79;20216;-88
2023/03/07 13:48:35;;;;;;;;;;;28.30;60.30;;;;;;1775536;79;20220;-89
2023/03/07 13:51:09;;;;;;;;;;;28.20;60.20;;;;;;1797505;79;20240;-88
2023/03/07 13:53:43;;;;;;;;;;;28.20;60.20;;;;;;1778643;79;20208;-89
2023/03/07 13:56:23;;;;;;;;;;;28.20;60.10;;;;;;1794670;78;20194;-87
2023/03/07 13:58:55;;;;;;;;;;;28.20;59.90;;;;;;1783774;80;20161;-88
2023/03/07 14:01:41;;;;;;;;;;;28.20;59.70;;;;;;1779748;80;20222;-87
2023/03/07 14:04:15;;;;;;;;;;;28.10;59.60;;;;;;1792097;80;20214;-89
2023/03/07 14:06:57;;;;;;;;;;;28.10;59.40;;;;;;1756227;80;20236;-88
2023/03/07 14:09:29;;;;;;;;;;;28.10;59.30;;;;;;1778882;79;20199;-87
2023/03/07 14:12:08;;;;;;;;;;;28.10;59.50;;;;;;1780346;78;20374;-88
2023/03/07 14:14:39;;;;;;;;;;;28.10;59.60;;;;;;1794852;79;20260;-89
2023/03/07 14:17:17;;;;;;;;;;;28.10;59.50;;;;;;1811257;78;20563;-88
2023/03/07 14:19:51;;;;;;;;;;;28.10;59.70;;;;;;1809326;79;20221;-88
2023/03/07 14:22:28;;;;;;;;;;;28.10;59.50;;;;;;1775149;79;20219;-89
2023/03/07 14:25:05;;;;;;;;;;;28.10;59.30;;;;;;1779760;79;20418;-87
2023/03/07 14:27:40;;;;;;;;;;;28.00;59.40;;;;;;1782239;80;20204;-88
2023/03/07 14:30:16;;;;;;;;;;;28.00;59.30;;;;;;1779279;80;20244;-88
2023/03/07 14:32:46;;;;;;;;;;;28.00;59.40;;;;;;1773230;80;20193;-88
2023/03/07 14:35:17;;;;;;;;;;;28.00;59.60;;;;;;1781001;79;20187;-89
2023/03/07 14:37:47;;;;;;;;;;;28.00;59.40;;;;;;1766293;80;20137;-88
2023/03/07 14:40:35;;;;;;;;;;;28.00;59.30;;;;;;1764052;78;20218;-89
2023/03/07 14:43:23;;;;;;;;;;;28.00;59.40;;;;;;1788432;79;20515;-89
2023/03/07 14:45:54;;;;;;;;;;;28.00;59.40;;;;;;1774830;80;20201;-87
2023/03/07 14:48:25;;;;;;;;;;;27.90;59.50;;;;;;1768974;80;20229;-89
2023/03/07 14:50:57;;;;;;;;;;;27.90;59.50;;;;;;1778227;79;20219;-88
2023/03/07 14:53:37;;;;;;;;;;;27.90;59.30;;;;;;1779006;80;20280;-89
2023/03/07 14:56:27;;;;;;;;;;;27.90;59.30;;;;;;1768985;80;20199;-90
2023/03/07 14:59:07;;;;;;;;;;;27.90;59.30;;;;;;1779425;80;20400;-88
2023/03/07 15:01:39;;;;;;;;;;;27.90;59.20;;;;;;1775734;80;20233;-87
2023/03/07 15:07:28;;;;;;;;;;;27.80;59.30;;;;;;1770918;78;20160;-88
2023/03/07 15:09:58;;;;;;;;;;;27.80;59.40;;;;;;1771567;80;20184;-87
2023/03/07 15:12:29;;;;;;;;;;;27.80;59.30;;;;;;1781378;80;20205;-88
2023/03/07 15:15:01;;;;;;;;;;;27.80;59.40;;;;;;1777675;80;20188;-88
2023/03/07 15:17:32;;;;;;;;;;;27.80;59.50;;;;;;1785058;80;20153;-88
2023/03/07 15:20:07;;;;;;;;;;;27.80;59.50;;;;;;1779126;80;20473;-89
2023/03/07 15:25:27;;;;;;;;;;;27.80;59.50;;;;;;1764792;79;20565;-87
2023/03/07 15:28:04;;;;;;;;;;;27.80;59.40;;;;;;1787174;79;20208;-89
2023/03/07 15:30:36;;;;;;;;;;;27.70;59.50;;;;;;1841560;78;20246;-89
2023/03/07 15:33:14;;;;;;;;;;;27.80;59.50;;;;;;1839270;77;20180;-88
2023/03/07 15:35:45;;;;;;;;;;;27.70;59.50;;;;;;1839845;76;20229;-86
2023/03/07 15:38:19;;;;;;;;;;;27.70;59.50;;;;;;1783264;78;20227;-88
2023/03/07 15:40:49;;;;;;;;;;;27.70;59.50;;;;;;1767662;79;20353;-87
2023/03/07 15:43:23;;;;;;;;;;;27.70;59.60;;;;;;1783712;80;20503;-89
2023/03/07 15:46:06;;;;;;;;;;;27.70;59.70;;;;;;1778794;78;20209;-88
2023/03/07 15:48:40;;;;;;;;;;;27.70;59.70;;;;;;1782274;79;20270;-88
2023/03/07 15:51:15;;;;;;;;;;;27.70;59.80;;;;;;1778918;80;20384;-87
2023/03/07 15:53:46;;;;;;;;;;;27.70;59.90;;;;;;1767777;80;20187;-88
2023/03/07 15:56:23;;;;;;;;;;;27.70;59.90;;;;;;1786973;80;20165;-88
2023/03/07 15:58:54;;;;;;;;;;;27.60;60.00;;;;;;1785607;80;20166;-88
2023/03/07 16:04:31;;;;;;;;;;;27.60;60.50;;;;;;1799033;79;20272;-87
2023/03/07 16:06:58;;;;;;;;;;;27.60;60.40;;;;;;1831051;77;20221;-88
2023/03/07 16:09:27;;;;;;;;;;;27.50;60.50;;;;;;1845568;77;20175;-89